Calgary, Canada
Current Conditions -  °F | °C
As of 5:00 PM on Thursday 27 Nov 2014 (Local Time) from CYYC Reporting Station
Light Snow Light Snow  
Wind Chill: -18°   Ceiling: 1100
Heat Index: -10°   Visibility: 2.5mi
Dew Point: -12°   Wind: 14mph
Humidity: 86%   Direction: 350°N
Pressure: 29.75"   Gusts: NA
Location:  51.05°N, 114.06°W
Report Text: CYYC 280000Z 35012KT 2 1/2SM -SN OVC011 M10/M12 A2975 RMK SN3SC5 CIG VRB 008-015 SLP140
Loading
Personal Weather Stations






























Interactive Weather Map New forecast layout! Learn more

10-Day Weather Forecast

Advertisements
Track Severe Weather on mobile